Time;durP1;ratioP1;P1;durP2;ratioP2;P2;SDS_P1;SDS_P2;PMS_P1;PMS_P2;Temp;Humidity;BMP_temperature;BMP_pressure;BME280_temperature;BME280_humidity;BME280_pressure;Samples;Min_cycle;Max_cycle;Signal;HPM_P1;HPM_P2
2022/01/16 00:04:16;;;;;;;33.78;10.43;;;;;;;;;;5017102;28;20029;-72
2022/01/16 00:06:45;;;;;;;26.00;10.63;;;;;;;;;;4999512;28;20021;-73
2022/01/16 00:09:11;;;;;;;26.55;10.02;;;;;;;;;;4998340;28;20412;-72
2022/01/16 00:11:38;;;;;;;27.85;12.23;;;;;;;;;;5016349;28;20317;-72
2022/01/16 00:14:04;;;;;;;21.92;10.55;;;;;;;;;;4999896;28;20029;-72
2022/01/16 00:16:31;;;;;;;31.58;11.68;;;;;;;;;;5016036;28;20057;-73
2022/01/16 00:18:58;;;;;;;35.38;12.40;;;;;;;;;;5016046;28;20022;-72
2022/01/16 00:21:32;;;;;;;35.08;11.20;;;;;;;;;;5016041;28;20036;-72
2022/01/16 00:23:58;;;;;;;26.38;11.68;;;;;;;;;;4999708;28;20026;-72
2022/01/16 00:26:25;;;;;;;29.40;12.07;;;;;;;;;;4999305;28;20076;-72
2022/01/16 00:28:51;;;;;;;25.80;11.80;;;;;;;;;;4999297;28;20022;-72
2022/01/16 00:31:18;;;;;;;27.83;10.98;;;;;;;;;;5015884;28;20419;-72
2022/01/16 00:33:46;;;;;;;27.55;10.27;;;;;;;;;;4999087;28;20022;-74
2022/01/16 00:36:17;;;;;;;31.17;11.90;;;;;;;;;;4995702;28;20034;-72
2022/01/16 00:38:44;;;;;;;42.00;12.48;;;;;;;;;;5015705;28;20431;-73
2022/01/16 00:41:24;;;;;;;27.10;11.32;;;;;;;;;;4999312;28;20080;-73
2022/01/16 00:43:54;;;;;;;37.13;15.57;;;;;;;;;;5015111;28;20030;-72
2022/01/16 00:46:21;;;;;;;31.88;13.05;;;;;;;;;;4983319;28;20028;-72
2022/01/16 00:48:47;;;;;;;39.20;16.02;;;;;;;;;;5014885;28;20374;-72
2022/01/16 00:51:14;;;;;;;38.28;13.32;;;;;;;;;;4999221;28;20018;-72
2022/01/16 00:53:42;;;;;;;33.95;14.80;;;;;;;;;;5016917;28;20022;-72
2022/01/16 00:56:08;;;;;;;41.17;15.57;;;;;;;;;;4999415;28;20042;-72
2022/01/16 00:58:35;;;;;;;44.58;16.45;;;;;;;;;;4998920;28;20053;-73
2022/01/16 01:01:01;;;;;;;47.45;18.23;;;;;;;;;;4999289;28;20022;-74
2022/01/16 01:03:28;;;;;;;31.00;14.73;;;;;;;;;;5014675;28;20013;-74
2022/01/16 01:05:54;;;;;;;49.97;19.45;;;;;;;;;;5015326;28;20025;-74
2022/01/16 01:08:21;;;;;;;51.90;18.83;;;;;;;;;;5015156;28;20025;-74
2022/01/16 01:10:50;;;;;;;48.50;23.08;;;;;;;;;;5016176;28;20026;-73
2022/01/16 01:16:01;;;;;;;53.40;26.48;;;;;;;;;;5016575;28;20065;-74
2022/01/16 01:18:28;;;;;;;57.28;24.45;;;;;;;;;;5015544;28;20028;-74
2022/01/16 01:20:55;;;;;;;65.65;26.42;;;;;;;;;;5015931;28;20394;-72
2022/01/16 01:23:21;;;;;;;64.15;26.13;;;;;;;;;;5019822;28;20029;-72
2022/01/16 01:25:48;;;;;;;58.45;28.02;;;;;;;;;;5018602;28;20371;-72
2022/01/16 01:28:14;;;;;;;84.80;42.90;;;;;;;;;;5002305;28;20033;-72
2022/01/16 01:30:43;;;;;;;96.95;40.15;;;;;;;;;;5018397;28;20022;-72
2022/01/16 01:33:09;;;;;;;78.32;32.10;;;;;;;;;;5001849;28;20435;-72
2022/01/16 01:35:39;;;;;;;66.10;27.35;;;;;;;;;;5018524;28;20044;-72
2022/01/16 01:38:09;;;;;;;71.53;30.88;;;;;;;;;;5002412;28;20486;-72
2022/01/16 01:40:36;;;;;;;72.25;35.38;;;;;;;;;;5017942;28;20348;-73
2022/01/16 01:51:07;;;;;;;31.70;15.45;;;;;;;;;;5018403;28;20415;-74
2022/01/16 01:53:34;;;;;;;56.17;25.52;;;;;;;;;;5018075;28;20140;-74
2022/01/16 01:56:02;;;;;;;47.28;20.63;;;;;;;;;;5018282;28;20033;-74
2022/01/16 01:58:28;;;;;;;38.40;19.08;;;;;;;;;;5018926;28;20029;-74
2022/01/16 02:00:54;;;;;;;30.23;17.52;;;;;;;;;;5002002;28;20036;-74
2022/01/16 02:03:32;;;;;;;46.95;19.90;;;;;;;;;;5017800;28;20164;-74
2022/01/16 02:05:58;;;;;;;62.25;22.63;;;;;;;;;;5018279;28;20416;-74
2022/01/16 02:08:24;;;;;;;69.55;30.40;;;;;;;;;;5019178;28;20026;-74
2022/01/16 02:10:50;;;;;;;56.67;24.30;;;;;;;;;;5018601;28;20049;-73
2022/01/16 02:13:23;;;;;;;89.53;44.10;;;;;;;;;;5001758;28;20018;-72
2022/01/16 02:31:47;;;;;;;94.13;38.13;;;;;;;;;;5019041;28;20017;-73
2022/01/16 02:37:19;;;;;;;30.50;15.27;;;;;;;;;;4957886;29;20126;-73
2022/01/16 02:39:51;;;;;;;33.03;14.23;;;;;;;;;;4926461;29;20023;-74
2022/01/16 02:42:18;;;;;;;26.33;12.60;;;;;;;;;;4989182;28;20041;-73
2022/01/16 02:45:02;;;;;;;30.92;13.10;;;;;;;;;;4999835;28;20030;-73
2022/01/16 02:47:28;;;;;;;29.10;13.95;;;;;;;;;;5017754;28;20327;-73
2022/01/16 02:49:55;;;;;;;35.15;12.38;;;;;;;;;;5016078;28;20026;-72
2022/01/16 02:52:22;;;;;;;25.02;12.73;;;;;;;;;;5010538;28;20018;-73
2022/01/16 02:54:55;;;;;;;41.60;14.30;;;;;;;;;;5013567;28;20021;-74
2022/01/16 02:57:25;;;;;;;25.63;10.02;;;;;;;;;;4995614;28;20343;-73
2022/01/16 03:00:02;;;;;;;34.60;12.27;;;;;;;;;;4996809;28;20026;-76
2022/01/16 03:02:30;;;;;;;33.58;11.55;;;;;;;;;;4996574;28;20107;-75
2022/01/16 03:04:56;;;;;;;25.17;12.48;;;;;;;;;;5000423;28;20022;-72
2022/01/16 03:07:24;;;;;;;31.85;13.25;;;;;;;;;;5015315;28;20072;-74
2022/01/16 03:10:32;;;;;;;45.80;14.25;;;;;;;;;;4995735;28;20336;-75
2022/01/16 03:12:55;;;;;;;24.30;12.55;;;;;;;;;;5013432;28;20042;-73
2022/01/16 03:15:25;;;;;;;33.50;14.07;;;;;;;;;;5016485;28;20069;-75
2022/01/16 03:23:10;;;;;;;31.33;11.73;;;;;;;;;;5016760;28;20026;-73
2022/01/16 03:25:36;;;;;;;44.20;14.70;;;;;;;;;;5000687;28;20068;-73
2022/01/16 03:28:02;;;;;;;27.65;12.15;;;;;;;;;;5015407;28;20022;-74
2022/01/16 03:30:28;;;;;;;26.58;11.77;;;;;;;;;;5016230;28;20104;-75
2022/01/16 03:32:55;;;;;;;32.95;11.82;;;;;;;;;;5015632;28;20014;-73
2022/01/16 03:35:21;;;;;;;26.77;14.00;;;;;;;;;;5016156;28;20030;-74
2022/01/16 03:37:49;;;;;;;25.92;10.90;;;;;;;;;;4999796;28;20508;-73
2022/01/16 03:40:17;;;;;;;25.60;13.80;;;;;;;;;;5016046;28;20026;-74
2022/01/16 03:42:44;;;;;;;33.08;12.10;;;;;;;;;;5016314;28;20076;-73
2022/01/16 03:45:11;;;;;;;32.95;12.20;;;;;;;;;;5015206;28;20021;-74
2022/01/16 03:47:37;;;;;;;31.65;12.85;;;;;;;;;;5015047;28;20349;-74
2022/01/16 03:50:04;;;;;;;29.02;10.20;;;;;;;;;;5015535;28;20029;-73
2022/01/16 03:52:33;;;;;;;33.20;11.40;;;;;;;;;;5010514;28;20025;-74
2022/01/16 03:54:59;;;;;;;25.30;10.45;;;;;;;;;;5015844;28;20061;-74
2022/01/16 03:57:26;;;;;;;31.27;11.35;;;;;;;;;;5015470;28;20014;-74
2022/01/16 03:59:52;;;;;;;21.88;10.05;;;;;;;;;;4999828;28;20022;-74
2022/01/16 04:02:18;;;;;;;32.88;13.30;;;;;;;;;;5017394;28;20320;-73
2022/01/16 04:04:44;;;;;;;31.13;10.70;;;;;;;;;;4999711;28;20037;-74
2022/01/16 04:07:14;;;;;;;30.98;10.55;;;;;;;;;;5015998;28;20018;-73
2022/01/16 04:09:41;;;;;;;32.58;11.13;;;;;;;;;;4999376;28;20052;-73
2022/01/16 04:12:09;;;;;;;32.00;12.23;;;;;;;;;;5015539;28;20029;-73
2022/01/16 04:17:12;;;;;;;28.73;13.15;;;;;;;;;;5016758;28;20274;-73
2022/01/16 04:19:38;;;;;;;33.72;12.27;;;;;;;;;;5015556;28;20014;-73
2022/01/16 04:22:04;;;;;;;29.33;11.70;;;;;;;;;;5016103;28;20038;-73
2022/01/16 04:24:30;;;;;;;33.13;15.85;;;;;;;;;;4999559;28;20026;-73
2022/01/16 04:26:56;;;;;;;37.42;14.65;;;;;;;;;;5017692;28;20297;-73
2022/01/16 04:29:22;;;;;;;37.65;15.85;;;;;;;;;;5015824;28;20021;-73
2022/01/16 04:31:49;;;;;;;31.60;13.65;;;;;;;;;;4999503;28;20018;-73
2022/01/16 04:34:15;;;;;;;28.02;14.38;;;;;;;;;;4999378;28;20056;-73
2022/01/16 04:36:42;;;;;;;42.08;15.25;;;;;;;;;;5015681;28;20141;-73
2022/01/16 04:39:14;;;;;;;34.63;13.55;;;;;;;;;;5015867;28;20018;-73
2022/01/16 04:44:24;;;;;;;35.50;14.05;;;;;;;;;;5016275;28;20014;-73
2022/01/16 04:46:53;;;;;;;39.88;14.20;;;;;;;;;;4999486;28;20026;-74
2022/01/16 04:49:19;;;;;;;31.75;13.50;;;;;;;;;;4998424;28;20026;-73
2022/01/16 04:51:46;;;;;;;39.40;12.07;;;;;;;;;;5015532;28;20053;-73
2022/01/16 04:54:12;;;;;;;44.38;13.15;;;;;;;;;;5015834;28;20021;-73
2022/01/16 04:56:39;;;;;;;44.05;16.35;;;;;;;;;;5017100;28;20087;-73
2022/01/16 04:59:05;;;;;;;48.75;16.20;;;;;;;;;;5019562;28;20029;-73
2022/01/16 05:01:32;;;;;;;42.42;19.00;;;;;;;;;;5020095;28;20056;-73
2022/01/16 05:03:58;;;;;;;43.42;17.25;;;;;;;;;;5002758;28;20061;-73
2022/01/16 05:06:24;;;;;;;39.95;15.23;;;;;;;;;;5002651;28;20029;-73
2022/01/16 05:08:50;;;;;;;39.30;16.80;;;;;;;;;;5018820;28;20022;-73
2022/01/16 05:11:22;;;;;;;41.15;18.13;;;;;;;;;;5020257;28;20033;-73
2022/01/16 05:19:06;;;;;;;42.28;18.95;;;;;;;;;;5015464;28;20022;-73
2022/01/16 05:21:32;;;;;;;40.42;21.98;;;;;;;;;;5002901;28;20022;-73
2022/01/16 05:23:58;;;;;;;83.68;28.48;;;;;;;;;;5018655;28;20022;-73
2022/01/16 05:26:28;;;;;;;88.20;30.33;;;;;;;;;;5018336;28;20454;-73
2022/01/16 05:28:58;;;;;;;49.42;24.00;;;;;;;;;;5016102;28;20029;-74
2022/01/16 05:31:24;;;;;;;35.40;15.87;;;;;;;;;;5002304;28;20029;-73
2022/01/16 05:33:51;;;;;;;39.60;16.95;;;;;;;;;;5002521;28;20304;-73
2022/01/16 05:36:20;;;;;;;59.38;18.98;;;;;;;;;;5002533;28;20033;-73
2022/01/16 05:38:47;;;;;;;67.50;19.38;;;;;;;;;;5018671;28;20029;-73
2022/01/16 05:41:13;;;;;;;42.97;15.73;;;;;;;;;;5002481;28;20052;-73
2022/01/16 05:43:39;;;;;;;47.78;20.33;;;;;;;;;;5017509;28;20022;-73
2022/01/16 05:48:45;;;;;;;47.28;19.50;;;;;;;;;;5014714;28;20133;-73
2022/01/16 05:51:33;;;;;;;44.45;19.40;;;;;;;;;;5018339;28;20045;-74
2022/01/16 05:54:08;;;;;;;46.53;21.48;;;;;;;;;;5017443;28;20025;-73
2022/01/16 05:56:54;;;;;;;59.88;27.42;;;;;;;;;;5001371;28;20045;-73
2022/01/16 05:59:38;;;;;;;58.13;26.13;;;;;;;;;;5007094;28;20028;-73
2022/01/16 06:02:12;;;;;;;61.03;29.02;;;;;;;;;;4999929;23;20038;-75
2022/01/16 06:04:54;;;;;;;75.88;35.30;;;;;;;;;;5020923;23;20411;-73
2022/01/16 06:07:33;;;;;;;89.20;40.38;;;;;;;;;;4998125;23;20034;-74
2022/01/16 06:10:12;;;;;;;65.22;32.35;;;;;;;;;;4994084;28;20104;-76
2022/01/16 06:12:39;;;;;;;77.03;36.75;;;;;;;;;;5022869;23;20048;-73
2022/01/16 06:15:14;;;;;;;62.67;31.05;;;;;;;;;;4999179;28;20076;-73
2022/01/16 06:17:42;;;;;;;65.13;29.05;;;;;;;;;;4993520;28;20026;-73
2022/01/16 06:20:20;;;;;;;56.92;27.88;;;;;;;;;;5018028;23;20077;-75
2022/01/16 06:22:53;;;;;;;64.20;28.08;;;;;;;;;;5004931;23;20057;-75
2022/01/16 06:25:23;;;;;;;47.90;23.60;;;;;;;;;;5016612;28;20450;-73
2022/01/16 06:27:52;;;;;;;60.10;26.63;;;;;;;;;;5000665;23;20069;-73
2022/01/16 06:30:42;;;;;;;54.80;25.20;;;;;;;;;;5002360;23;20041;-74
2022/01/16 06:33:17;;;;;;;47.42;24.95;;;;;;;;;;5013156;28;20339;-75
2022/01/16 06:35:57;;;;;;;63.80;25.48;;;;;;;;;;4995631;28;20037;-73
2022/01/16 06:38:48;;;;;;;43.38;18.90;;;;;;;;;;5016490;28;20087;-74
2022/01/16 06:41:36;;;;;;;36.78;17.25;;;;;;;;;;4993578;28;20029;-74
2022/01/16 06:49:22;;;;;;;36.80;17.45;;;;;;;;;;5010858;28;20046;-75
2022/01/16 06:52:04;;;;;;;35.65;18.52;;;;;;;;;;4977337;28;20029;-74
2022/01/16 06:54:32;;;;;;;33.03;18.67;;;;;;;;;;5003599;23;20025;-73
2022/01/16 07:01:58;;;;;;;36.05;16.33;;;;;;;;;;5011628;28;20336;-74
2022/01/16 07:04:26;;;;;;;50.80;18.55;;;;;;;;;;4979259;23;20133;-74
2022/01/16 07:06:54;;;;;;;48.35;18.58;;;;;;;;;;4963589;23;20445;-75
2022/01/16 07:09:23;;;;;;;42.88;19.00;;;;;;;;;;4975474;28;20018;-73
2022/01/16 07:11:59;;;;;;;33.25;15.13;;;;;;;;;;4959598;28;20019;-74
2022/01/16 07:14:30;;;;;;;32.17;14.35;;;;;;;;;;4975601;23;20050;-74
2022/01/16 07:17:05;;;;;;;41.83;15.68;;;;;;;;;;4974102;28;20436;-73
2022/01/16 07:19:43;;;;;;;33.22;14.00;;;;;;;;;;4974177;28;20030;-77
2022/01/16 07:22:32;;;;;;;25.48;11.13;;;;;;;;;;4993113;28;20480;-74
2022/01/16 07:27:31;;;;;;;45.65;15.73;;;;;;;;;;5012161;23;20347;-75
2022/01/16 07:30:03;;;;;;;49.90;17.52;;;;;;;;;;4995493;23;20042;-75
2022/01/16 07:35:34;;;;;;;44.20;13.88;;;;;;;;;;5009668;28;20148;-74
2022/01/16 07:38:03;;;;;;;41.35;11.73;;;;;;;;;;4974302;28;20278;-75
2022/01/16 07:43:19;;;;;;;45.50;17.83;;;;;;;;;;5012854;23;20041;-74
2022/01/16 07:46:20;;;;;;;30.75;12.88;;;;;;;;;;5022255;23;20099;-74
2022/01/16 07:48:52;;;;;;;38.78;15.05;;;;;;;;;;5012287;22;20364;-75
2022/01/16 07:51:37;;;;;;;23.33;11.85;;;;;;;;;;5020893;23;20037;-76
2022/01/16 07:54:08;;;;;;;36.97;15.50;;;;;;;;;;5015202;28;20506;-74
2022/01/16 07:57:10;;;;;;;52.22;19.48;;;;;;;;;;5014638;22;20069;-75
2022/01/16 07:59:55;;;;;;;46.75;20.80;;;;;;;;;;5018057;23;20060;-75
2022/01/16 08:02:23;;;;;;;45.40;19.10;;;;;;;;;;5002199;23;20052;-75
2022/01/16 08:04:54;;;;;;;31.95;17.60;;;;;;;;;;4991483;28;20025;-74
2022/01/16 08:07:56;;;;;;;46.70;18.98;;;;;;;;;;5001627;28;20082;-75
2022/01/16 08:15:54;;;;;;;44.42;20.63;;;;;;;;;;5012721;23;20166;-74
2022/01/16 08:18:22;;;;;;;37.63;15.70;;;;;;;;;;5010464;28;20018;-73
2022/01/16 08:23:33;;;;;;;39.28;16.05;;;;;;;;;;5004112;28;20069;-74
2022/01/16 08:26:34;;;;;;;40.92;15.48;;;;;;;;;;4941017;28;20030;-75
2022/01/16 08:29:13;;;;;;;29.10;15.45;;;;;;;;;;4975474;28;20034;-74
2022/01/16 08:31:46;;;;;;;49.50;15.95;;;;;;;;;;4978890;23;20443;-73
2022/01/16 08:41:38;;;;;;;52.60;15.70;;;;;;;;;;5018010;23;20077;-73
2022/01/16 08:44:23;;;;;;;36.13;15.85;;;;;;;;;;4997863;28;20024;-74
2022/01/16 08:49:38;;;;;;;40.45;14.80;;;;;;;;;;5027703;22;20178;-76
2022/01/16 08:52:19;;;;;;;49.72;18.27;;;;;;;;;;5016051;22;20129;-75
2022/01/16 08:55:10;;;;;;;52.70;21.30;;;;;;;;;;4996229;28;20037;-75
2022/01/16 08:57:43;;;;;;;31.05;13.57;;;;;;;;;;5017982;28;20026;-76
2022/01/16 09:00:18;;;;;;;29.83;11.98;;;;;;;;;;5013410;28;20029;-75
2022/01/16 09:02:54;;;;;;;24.70;10.57;;;;;;;;;;5027834;23;20034;-75
2022/01/16 09:16:02;;;;;;;30.73;12.32;;;;;;;;;;5011165;28;20045;-74
2022/01/16 09:21:58;;;;;;;27.38;11.80;;;;;;;;;;4919515;28;20030;-73
2022/01/16 09:24:40;;;;;;;30.67;13.33;;;;;;;;;;4998041;28;20116;-75
2022/01/16 09:27:24;;;;;;;28.02;12.02;;;;;;;;;;5011546;28;20105;-73
2022/01/16 09:30:19;;;;;;;42.65;14.85;;;;;;;;;;5013525;23;20042;-73
2022/01/16 09:33:00;;;;;;;33.17;12.45;;;;;;;;;;5015421;28;20479;-72
2022/01/16 09:38:22;;;;;;;43.53;13.68;;;;;;;;;;5018321;22;20042;-73
2022/01/16 09:43:28;;;;;;;36.72;14.30;;;;;;;;;;5021184;22;20046;-73
2022/01/16 09:53:51;;;;;;;37.83;17.73;;;;;;;;;;5019840;23;20042;-74
2022/01/16 09:56:41;;;;;;;47.30;19.48;;;;;;;;;;4998296;28;20537;-75
2022/01/16 09:59:24;;;;;;;41.05;19.52;;;;;;;;;;4998539;23;20046;-73
2022/01/16 10:02:32;;;;;;;49.45;18.02;;;;;;;;;;5015547;23;20041;-74
2022/01/16 10:05:20;;;;;;;38.28;15.80;;;;;;;;;;5009329;23;20113;-75
2022/01/16 10:07:50;;;;;;;39.78;13.60;;;;;;;;;;5028524;22;20050;-74
2022/01/16 10:10:27;;;;;;;39.50;15.73;;;;;;;;;;4975947;28;20053;-75
2022/01/16 10:13:06;;;;;;;46.38;14.88;;;;;;;;;;4992966;23;20042;-74
2022/01/16 10:15:37;;;;;;;33.20;14.52;;;;;;;;;;4998800;28;20052;-74
2022/01/16 10:18:10;;;;;;;41.70;15.25;;;;;;;;;;5000607;23;20046;-73
2022/01/16 10:20:42;;;;;;;37.72;13.05;;;;;;;;;;4995327;28;20026;-73
2022/01/16 10:26:01;;;;;;;39.85;15.73;;;;;;;;;;5008314;28;20073;-76
2022/01/16 10:28:41;;;;;;;43.13;13.00;;;;;;;;;;4974793;23;20061;-75
2022/01/16 10:34:35;;;;;;;52.22;14.27;;;;;;;;;;5017572;23;20076;-74
2022/01/16 10:37:36;;;;;;;49.30;12.27;;;;;;;;;;4994178;23;20042;-72
2022/01/16 10:40:06;;;;;;;40.75;15.95;;;;;;;;;;5012620;28;20041;-72
2022/01/16 10:42:35;;;;;;;53.47;19.33;;;;;;;;;;4983443;28;20285;-72
2022/01/16 10:45:21;;;;;;;56.75;24.70;;;;;;;;;;4999414;28;20298;-73
2022/01/16 10:47:53;;;;;;;54.53;18.45;;;;;;;;;;4999232;28;20022;-72
2022/01/16 10:50:30;;;;;;;46.20;20.10;;;;;;;;;;4981216;28;20018;-73
2022/01/16 10:53:21;;;;;;;58.30;22.38;;;;;;;;;;4979041;28;20065;-73
2022/01/16 10:55:51;;;;;;;80.38;25.92;;;;;;;;;;4999794;28;20037;-72
2022/01/16 10:58:41;;;;;;;118.30;26.88;;;;;;;;;;4983795;28;20045;-72
2022/01/16 11:01:16;;;;;;;57.05;21.02;;;;;;;;;;4983505;28;20022;-72
2022/01/16 11:04:01;;;;;;;59.65;22.50;;;;;;;;;;4998428;28;20018;-73
2022/01/16 11:06:33;;;;;;;51.13;14.60;;;;;;;;;;4975264;28;20024;-73
2022/01/16 11:09:22;;;;;;;47.80;15.48;;;;;;;;;;4999844;23;20026;-72
2022/01/16 11:12:34;;;;;;;52.35;18.55;;;;;;;;;;4961544;28;20042;-73
2022/01/16 11:15:03;;;;;;;68.72;19.42;;;;;;;;;;4960006;28;20022;-73
2022/01/16 11:17:43;;;;;;;56.85;16.98;;;;;;;;;;4976428;28;20182;-72
2022/01/16 11:20:27;;;;;;;54.40;16.30;;;;;;;;;;4974652;28;20019;-73
2022/01/16 11:25:36;;;;;;;40.65;13.95;;;;;;;;;;4975753;28;20027;-73
2022/01/16 11:28:13;;;;;;;58.60;14.07;;;;;;;;;;4976597;28;20224;-73
2022/01/16 11:30:49;;;;;;;45.25;11.73;;;;;;;;;;4976497;28;20018;-73
2022/01/16 11:33:18;;;;;;;54.78;15.27;;;;;;;;;;4960515;28;20413;-73
2022/01/16 11:35:50;;;;;;;51.90;19.52;;;;;;;;;;4959933;28;20437;-73
2022/01/16 11:38:19;;;;;;;50.35;16.33;;;;;;;;;;4976827;28;20030;-73
2022/01/16 11:40:50;;;;;;;49.92;16.88;;;;;;;;;;4976929;28;20027;-73
2022/01/16 11:43:24;;;;;;;59.30;17.95;;;;;;;;;;4960606;28;20019;-73
2022/01/16 11:46:06;;;;;;;56.38;15.55;;;;;;;;;;4959601;28;20027;-73
2022/01/16 11:48:33;;;;;;;57.30;17.80;;;;;;;;;;4960426;28;20023;-73
2022/01/16 11:51:02;;;;;;;63.08;20.58;;;;;;;;;;4960958;28;20031;-73
2022/01/16 11:53:51;;;;;;;53.83;18.00;;;;;;;;;;4961117;28;20023;-73
2022/01/16 11:56:40;;;;;;;85.05;25.08;;;;;;;;;;4957896;28;20141;-73
2022/01/16 11:59:24;;;;;;;73.67;22.33;;;;;;;;;;4976652;28;20022;-73
2022/01/16 12:01:57;;;;;;;113.80;27.15;;;;;;;;;;4959047;28;20288;-73
2022/01/16 12:04:30;;;;;;;75.25;21.92;;;;;;;;;;4959878;28;20048;-72
2022/01/16 12:07:05;;;;;;;57.88;19.05;;;;;;;;;;4974342;28;20412;-72
2022/01/16 12:09:39;;;;;;;64.82;19.50;;;;;;;;;;4977584;28;20081;-72
2022/01/16 12:12:13;;;;;;;58.20;20.40;;;;;;;;;;4975853;28;20054;-73
2022/01/16 12:14:52;;;;;;;78.65;21.85;;;;;;;;;;4959374;28;20110;-72
2022/01/16 12:17:26;;;;;;;61.05;19.63;;;;;;;;;;4955001;28;20054;-73
2022/01/16 12:19:59;;;;;;;61.97;24.02;;;;;;;;;;4976500;28;20106;-72
2022/01/16 12:22:44;;;;;;;66.82;20.30;;;;;;;;;;4960739;28;20027;-72
2022/01/16 12:25:22;;;;;;;84.30;27.30;;;;;;;;;;4960203;28;20023;-72
2022/01/16 12:27:57;;;;;;;76.70;23.27;;;;;;;;;;4960170;28;20022;-73
2022/01/16 12:30:27;;;;;;;59.42;20.38;;;;;;;;;;4976831;28;20058;-72
2022/01/16 12:33:13;;;;;;;50.58;21.52;;;;;;;;;;4959221;28;20121;-72
2022/01/16 12:35:54;;;;;;;55.70;23.13;;;;;;;;;;4969690;28;20478;-72
2022/01/16 12:38:24;;;;;;;59.30;23.27;;;;;;;;;;4960173;28;20341;-72
2022/01/16 12:41:21;;;;;;;64.35;21.77;;;;;;;;;;4970674;28;20048;-72
2022/01/16 12:43:55;;;;;;;62.50;17.88;;;;;;;;;;4960825;28;20340;-72
2022/01/16 12:46:27;;;;;;;74.15;21.73;;;;;;;;;;4960156;28;20359;-72
2022/01/16 12:48:56;;;;;;;77.30;25.30;;;;;;;;;;4959699;28;20034;-72
2022/01/16 12:51:31;;;;;;;82.03;26.33;;;;;;;;;;4959845;28;20027;-72
2022/01/16 12:54:05;;;;;;;102.18;29.20;;;;;;;;;;4959770;28;20027;-72
2022/01/16 12:56:36;;;;;;;79.93;28.38;;;;;;;;;;4959114;28;20055;-72
2022/01/16 12:59:11;;;;;;;79.88;29.90;;;;;;;;;;4976025;28;20026;-72
2022/01/16 13:01:45;;;;;;;84.75;31.25;;;;;;;;;;4945875;28;20026;-72
2022/01/16 13:04:37;;;;;;;86.05;28.70;;;;;;;;;;4956935;28;20034;-73
2022/01/16 13:07:18;;;;;;;83.80;29.92;;;;;;;;;;4975616;28;20432;-72
2022/01/16 13:09:53;;;;;;;70.05;26.30;;;;;;;;;;4975317;28;20031;-72
2022/01/16 13:12:22;;;;;;;85.45;34.53;;;;;;;;;;4959737;28;20050;-72
2022/01/16 13:14:53;;;;;;;109.55;45.75;;;;;;;;;;4959763;28;20023;-72
2022/01/16 13:17:20;;;;;;;168.93;79.70;;;;;;;;;;4961295;28;20038;-72
2022/01/16 13:22:40;;;;;;;131.90;56.78;;;;;;;;;;4977768;28;20027;-72
2022/01/16 13:25:12;;;;;;;146.13;62.17;;;;;;;;;;4979101;28;20019;-72
2022/01/16 13:27:42;;;;;;;150.73;60.35;;;;;;;;;;4962918;28;20030;-72
2022/01/16 13:30:23;;;;;;;102.30;46.70;;;;;;;;;;4979124;28;20062;-72
2022/01/16 13:32:52;;;;;;;104.72;46.85;;;;;;;;;;4963323;28;20069;-72
2022/01/16 13:35:25;;;;;;;123.40;52.73;;;;;;;;;;4963557;28;20037;-72
2022/01/16 13:38:05;;;;;;;105.78;42.22;;;;;;;;;;4962516;28;20031;-72
2022/01/16 13:40:31;;;;;;;;;;;;;;;;;;4963965;28;20030;-72
2022/01/16 13:43:04;;;;;;;117.90;52.97;;;;;;;;;;4980022;28;20220;-73
2022/01/16 13:45:32;;;;;;;105.30;43.78;;;;;;;;;;4962636;28;20396;-72
2022/01/16 13:48:05;;;;;;;110.97;46.50;;;;;;;;;;4962755;28;20345;-72
2022/01/16 13:50:44;;;;;;;92.50;36.70;;;;;;;;;;4978885;28;20022;-72
2022/01/16 13:53:21;;;;;;;104.15;32.17;;;;;;;;;;4963373;28;20050;-72
2022/01/16 13:56:00;;;;;;;96.25;35.83;;;;;;;;;;4963433;28;20034;-73
2022/01/16 13:58:38;;;;;;;113.50;45.10;;;;;;;;;;4962158;28;20023;-72
2022/01/16 14:01:13;;;;;;;96.63;37.45;;;;;;;;;;4961398;28;20344;-72
2022/01/16 14:03:53;;;;;;;221.25;95.97;;;;;;;;;;4961938;28;20073;-72
2022/01/16 14:06:30;;;;;;;227.13;106.45;;;;;;;;;;4961698;28;20023;-73
2022/01/16 14:09:12;;;;;;;220.88;106.60;;;;;;;;;;4977057;28;20090;-73
2022/01/16 14:11:43;;;;;;;252.35;114.10;;;;;;;;;;4978287;28;20030;-72
2022/01/16 14:14:14;;;;;;;242.10;111.35;;;;;;;;;;4977824;28;20022;-72
2022/01/16 14:19:28;;;;;;;212.55;108.22;;;;;;;;;;4978577;28;20022;-72
2022/01/16 14:24:39;;;;;;;244.20;122.32;;;;;;;;;;4978135;28;20113;-73
2022/01/16 14:27:07;;;;;;;233.02;119.35;;;;;;;;;;4962237;28;20027;-72
2022/01/16 14:29:44;;;;;;;270.65;134.10;;;;;;;;;;4977684;28;20015;-72
2022/01/16 14:32:21;;;;;;;248.80;125.35;;;;;;;;;;4961355;28;20463;-72
2022/01/16 14:34:59;;;;;;;407.33;207.40;;;;;;;;;;4960696;28;20417;-75
2022/01/16 14:37:45;;;;;;;410.25;210.60;;;;;;;;;;4977069;28;20479;-73
2022/01/16 14:40:17;;;;;;;383.10;200.68;;;;;;;;;;4961800;28;20418;-72
2022/01/16 14:43:03;;;;;;;384.30;193.50;;;;;;;;;;4977129;28;20023;-72
2022/01/16 14:45:30;;;;;;;356.70;183.43;;;;;;;;;;4977795;28;20050;-73
2022/01/16 14:48:00;;;;;;;336.38;170.98;;;;;;;;;;4961950;28;20026;-72
2022/01/16 14:50:30;;;;;;;310.83;154.33;;;;;;;;;;4961719;28;20019;-72
2022/01/16 14:52:57;;;;;;;324.90;169.10;;;;;;;;;;4977401;28;20027;-73
2022/01/16 14:55:28;;;;;;;;;;;;;;;;;;4961353;28;20205;-73
2022/01/16 14:58:09;;;;;;;347.20;172.60;;;;;;;;;;4975986;28;19907;-73
2022/01/16 15:00:46;;;;;;;297.63;148.25;;;;;;;;;;4974380;28;20447;-72
2022/01/16 15:03:15;;;;;;;333.77;163.13;;;;;;;;;;4960279;28;20030;-73
2022/01/16 15:05:52;;;;;;;322.38;165.95;;;;;;;;;;4960978;28;20353;-72
2022/01/16 15:08:20;;;;;;;303.75;142.75;;;;;;;;;;4957085;28;20025;-73
2022/01/16 15:10:56;;;;;;;268.58;129.45;;;;;;;;;;4960584;28;20035;-72
2022/01/16 15:13:28;;;;;;;265.05;121.82;;;;;;;;;;4960389;28;20023;-75
2022/01/16 15:16:01;;;;;;;274.95;132.38;;;;;;;;;;4958757;28;20050;-75
2022/01/16 15:18:37;;;;;;;276.95;130.75;;;;;;;;;;4960889;28;20041;-73
2022/01/16 15:21:09;;;;;;;243.63;118.15;;;;;;;;;;4960393;28;20095;-73
2022/01/16 15:23:42;;;;;;;263.58;121.95;;;;;;;;;;4960720;28;20029;-72
2022/01/16 15:26:23;;;;;;;242.50;103.95;;;;;;;;;;4959338;28;20521;-73
2022/01/16 15:29:02;;;;;;;258.65;98.05;;;;;;;;;;4978638;28;20118;-73
2022/01/16 15:31:32;;;;;;;243.82;103.63;;;;;;;;;;4960692;28;20045;-73
2022/01/16 15:34:01;;;;;;;235.52;109.00;;;;;;;;;;4960521;28;20019;-72
2022/01/16 15:36:30;;;;;;;275.00;114.53;;;;;;;;;;4976554;28;20038;-72
2022/01/16 15:39:06;;;;;;;271.17;123.68;;;;;;;;;;4961304;28;20058;-72
2022/01/16 15:41:35;;;;;;;269.38;133.25;;;;;;;;;;4960636;28;20031;-72
2022/01/16 15:44:03;;;;;;;304.17;155.05;;;;;;;;;;4959668;28;20029;-72
2022/01/16 15:46:37;;;;;;;314.92;148.45;;;;;;;;;;4976232;28;20019;-72
2022/01/16 15:49:10;;;;;;;;;;;;;;;;;;4960900;28;20424;-73
2022/01/16 15:51:50;;;;;;;277.88;145.32;;;;;;;;;;4976461;28;19906;-73
2022/01/16 15:54:32;;;;;;;;;;;;;;;;;;4975626;28;20097;-73
2022/01/16 15:57:08;;;;;;;285.38;142.52;;;;;;;;;;4974199;28;20308;-73
2022/01/16 15:59:46;;;;;;;222.80;101.93;;;;;;;;;;4959094;28;20081;-72
2022/01/16 16:02:25;;;;;;;245.15;116.25;;;;;;;;;;4956948;28;20409;-73
2022/01/16 16:04:53;;;;;;;207.35;98.32;;;;;;;;;;4974143;28;20097;-73
2022/01/16 16:07:29;;;;;;;186.07;84.53;;;;;;;;;;4960431;28;20027;-72
2022/01/16 16:09:57;;;;;;;184.77;77.50;;;;;;;;;;4960470;28;20085;-73
2022/01/16 16:12:24;;;;;;;167.07;71.07;;;;;;;;;;4960724;28;20038;-72
2022/01/16 16:14:53;;;;;;;168.43;73.97;;;;;;;;;;4959869;28;20019;-72
2022/01/16 16:17:25;;;;;;;177.32;67.65;;;;;;;;;;4960581;28;20093;-72
2022/01/16 16:20:00;;;;;;;147.15;59.47;;;;;;;;;;4960549;28;20029;-73
2022/01/16 16:22:33;;;;;;;158.45;60.25;;;;;;;;;;4960789;28;20042;-73
2022/01/16 16:25:05;;;;;;;147.40;60.95;;;;;;;;;;4957563;28;20031;-73
2022/01/16 16:27:37;;;;;;;160.45;65.95;;;;;;;;;;4959835;28;20081;-73
2022/01/16 16:30:11;;;;;;;154.45;67.32;;;;;;;;;;4974385;28;20030;-73
2022/01/16 16:32:42;;;;;;;154.52;67.20;;;;;;;;;;4960361;28;20085;-73
2022/01/16 16:35:15;;;;;;;178.30;72.28;;;;;;;;;;4960720;28;20034;-72
2022/01/16 16:37:45;;;;;;;182.90;74.20;;;;;;;;;;4960918;28;20074;-73
2022/01/16 16:40:12;;;;;;;173.07;69.60;;;;;;;;;;4960169;28;20076;-72
2022/01/16 16:42:40;;;;;;;164.18;72.53;;;;;;;;;;4960055;28;20030;-72
2022/01/16 16:45:09;;;;;;;161.68;71.28;;;;;;;;;;4975288;28;20026;-72
2022/01/16 16:47:39;;;;;;;150.50;72.97;;;;;;;;;;4960122;28;20023;-72
2022/01/16 16:50:06;;;;;;;161.05;73.47;;;;;;;;;;4976054;28;20023;-72
2022/01/16 16:52:36;;;;;;;;;;;;;;;;;;4962015;28;20030;-73
2022/01/16 16:55:04;;;;;;;126.85;59.55;;;;;;;;;;4980210;28;19913;-73
2022/01/16 16:57:32;;;;;;;167.05;65.85;;;;;;;;;;4978046;28;20027;-72
2022/01/16 17:00:00;;;;;;;171.95;67.10;;;;;;;;;;4962495;28;20027;-73